createdAt,value
2019-01-28T00:02:59.439Z,3.10
2019-01-28T00:07:52.394Z,3.63
2019-01-28T00:12:45.770Z,3.10
2019-01-28T00:17:40.403Z,3.20
2019-01-28T00:22:34.686Z,3.60
2019-01-28T00:27:27.580Z,2.90
2019-01-28T00:32:20.442Z,3.23
2019-01-28T00:37:13.277Z,3.53
2019-01-28T00:42:06.100Z,3.33
2019-01-28T00:46:58.970Z,3.57
2019-01-28T00:51:51.847Z,3.37
2019-01-28T00:56:47.634Z,3.10
2019-01-28T01:01:40.485Z,3.00
2019-01-28T01:06:33.426Z,2.90
2019-01-28T01:11:26.310Z,2.70
2019-01-28T01:16:19.176Z,2.60
2019-01-28T01:21:12.016Z,3.10
2019-01-28T01:26:04.950Z,2.63
2019-01-28T01:30:57.802Z,2.50
2019-01-28T01:35:50.667Z,1.90
2019-01-28T01:40:43.524Z,1.87
2019-01-28T01:45:36.359Z,1.73
2019-01-28T01:50:29.204Z,1.77
2019-01-28T01:55:22.047Z,1.73
2019-01-28T02:00:17.659Z,1.53
2019-01-28T02:05:10.921Z,1.57
2019-01-28T02:10:05.939Z,1.63
2019-01-28T02:14:58.755Z,1.70
2019-01-28T02:19:51.628Z,1.93
2019-01-28T02:24:44.478Z,1.83
2019-01-28T02:29:37.301Z,2.33
2019-01-28T02:34:30.151Z,2.30
2019-01-28T02:39:22.959Z,2.00
2019-01-28T02:44:15.825Z,2.13
2019-01-28T02:49:08.642Z,2.60
2019-01-28T02:54:01.500Z,2.50
2019-01-28T02:58:54.336Z,2.50
2019-01-28T03:03:47.217Z,2.30
2019-01-28T03:08:40.074Z,2.50
2019-01-28T03:13:32.909Z,2.47
2019-01-28T03:18:25.742Z,2.07
2019-01-28T03:23:19.917Z,2.30
2019-01-28T03:28:12.791Z,2.03
2019-01-28T03:33:05.851Z,2.07
2019-01-28T03:37:59.665Z,1.80
2019-01-28T03:42:52.686Z,2.10
2019-01-28T03:47:45.668Z,2.10
2019-01-28T03:52:38.815Z,1.87
2019-01-28T03:57:31.640Z,2.20
2019-01-28T04:02:24.517Z,1.60
2019-01-28T04:07:17.327Z,1.97
2019-01-28T04:12:10.204Z,2.20
2019-01-28T04:17:03.004Z,2.80
2019-01-28T04:21:55.836Z,2.20
2019-01-28T04:26:48.666Z,2.70
2019-01-28T04:31:41.505Z,2.07
2019-01-28T04:36:34.337Z,1.90
2019-01-28T04:41:27.183Z,1.60
2019-01-28T04:46:20.002Z,1.40
2019-01-28T04:51:12.840Z,1.50
2019-01-28T04:56:05.665Z,1.30
2019-01-28T05:00:58.527Z,1.13
2019-01-28T05:05:51.435Z,1.10
2019-01-28T05:10:44.339Z,1.13
2019-01-28T05:15:37.195Z,0.80
2019-01-28T05:20:30.028Z,1.07
2019-01-28T05:25:22.872Z,1.07
2019-01-28T05:30:19.007Z,1.10
2019-01-28T05:35:13.957Z,0.80
2019-01-28T05:40:09.895Z,1.03
2019-01-28T05:45:03.665Z,1.30
2019-01-28T05:49:56.528Z,1.07
2019-01-28T05:54:49.341Z,1.00
2019-01-28T05:59:42.190Z,1.30
2019-01-28T06:04:35.040Z,1.13
2019-01-28T06:09:27.940Z,0.90
2019-01-28T06:14:20.791Z,1.10
2019-01-28T06:19:13.601Z,1.03
2019-01-28T06:24:06.435Z,1.10
2019-01-28T06:28:59.253Z,1.97
2019-01-28T06:33:52.148Z,1.10
2019-01-28T06:38:44.966Z,1.03
2019-01-28T06:43:37.804Z,1.27
2019-01-28T06:48:30.653Z,1.40
2019-01-28T06:53:23.604Z,1.10
2019-01-28T06:58:16.420Z,1.00
2019-01-28T07:03:09.277Z,1.00
2019-01-28T07:08:02.092Z,1.57
2019-01-28T07:12:55.434Z,1.27
2019-01-28T07:17:54.683Z,0.90
2019-01-28T07:22:43.116Z,1.17
2019-01-28T07:27:35.961Z,1.23
2019-01-28T07:32:28.811Z,1.00
2019-01-28T07:37:21.680Z,1.37
2019-01-28T07:42:16.313Z,1.63
2019-01-28T07:47:09.209Z,1.70
2019-01-28T07:52:02.048Z,1.80
2019-01-28T07:56:54.911Z,1.33
2019-01-28T08:01:47.767Z,1.53
2019-01-28T08:06:40.833Z,1.90
2019-01-28T08:11:33.664Z,1.57
2019-01-28T08:16:26.532Z,1.57
2019-01-28T08:21:19.355Z,1.43
2019-01-28T08:26:12.190Z,1.50
2019-01-28T08:31:05.020Z,1.60
2019-01-28T08:35:57.989Z,1.60
2019-01-28T08:40:50.836Z,1.80
2019-01-28T08:45:43.743Z,1.80
2019-01-28T08:50:36.709Z,2.10
2019-01-28T08:55:29.752Z,1.90
2019-01-28T09:00:29.779Z,2.17
2019-01-28T09:05:23.301Z,1.90
2019-01-28T09:10:18.196Z,1.47
2019-01-28T09:15:13.825Z,1.60
2019-01-28T09:20:11.544Z,2.00
2019-01-28T09:25:06.292Z,1.80
2019-01-28T09:29:59.224Z,2.13
2019-01-28T09:34:52.379Z,2.30
2019-01-28T09:39:45.333Z,1.83
2019-01-28T09:44:38.452Z,2.40
2019-01-28T09:49:32.836Z,2.30
2019-01-28T09:54:25.776Z,2.17
2019-01-28T09:59:18.631Z,2.30
2019-01-28T10:04:11.644Z,2.03
2019-01-28T10:09:10.138Z,1.63
2019-01-28T10:14:02.913Z,1.63
2019-01-28T10:18:55.783Z,1.50
2019-01-28T10:23:48.739Z,1.80
2019-01-28T10:28:42.085Z,2.40
2019-01-28T10:33:34.931Z,2.90
2019-01-28T10:38:27.957Z,1.97
2019-01-28T10:43:20.857Z,1.83
2019-01-28T10:48:13.707Z,2.00
2019-01-28T10:53:07.176Z,1.97
2019-01-28T10:58:00.339Z,1.80
2019-01-28T11:02:53.954Z,1.80
2019-01-28T11:07:46.914Z,1.80
2019-01-28T11:12:39.773Z,1.70
2019-01-28T11:17:33.116Z,1.73
2019-01-28T11:22:26.109Z,1.90
2019-01-28T11:27:19.028Z,1.63
2019-01-28T11:32:11.961Z,1.60
2019-01-28T11:37:05.709Z,1.90
2019-01-28T11:41:58.726Z,1.73
2019-01-28T11:46:51.586Z,1.40
2019-01-28T11:51:44.428Z,1.70
2019-01-28T11:56:37.346Z,2.07
2019-01-28T12:01:31.197Z,1.87
2019-01-28T12:06:24.293Z,2.00
2019-01-28T12:11:17.191Z,2.40
2019-01-28T12:16:10.058Z,1.93
2019-01-28T12:21:03.344Z,1.97
2019-01-28T12:25:56.256Z,2.10
2019-01-28T12:30:49.216Z,2.00
2019-01-28T12:35:42.224Z,2.07
2019-01-28T12:40:35.067Z,2.00
2019-01-28T12:45:29.179Z,1.63
2019-01-28T12:50:22.800Z,2.10
2019-01-28T12:55:17.384Z,2.03
2019-01-28T13:00:25.368Z,1.87
2019-01-28T13:05:20.408Z,2.53
2019-01-28T13:10:17.424Z,1.60
2019-01-28T13:15:15.867Z,1.50
2019-01-28T13:20:09.242Z,1.43
2019-01-28T13:25:02.484Z,1.93
2019-01-28T13:29:57.425Z,1.53
2019-01-28T13:34:50.450Z,1.80
2019-01-28T13:39:45.100Z,1.33
2019-01-28T13:44:42.841Z,1.37
2019-01-28T13:49:40.542Z,1.30
2019-01-28T13:54:35.392Z,2.03
2019-01-28T13:59:28.444Z,1.70
2019-01-28T14:04:24.342Z,1.33
2019-01-28T14:09:21.380Z,1.60
2019-01-28T14:14:14.272Z,2.00
2019-01-28T14:19:08.600Z,2.20
2019-01-28T14:24:01.942Z,2.00
2019-01-28T14:28:54.816Z,2.00
2019-01-28T14:33:47.925Z,1.90
2019-01-28T14:38:40.981Z,1.90
2019-01-28T14:43:34.058Z,2.23
2019-01-28T14:48:27.395Z,2.07
2019-01-28T14:53:20.411Z,2.20
2019-01-28T14:58:16.469Z,2.27
2019-01-28T15:03:09.007Z,2.60
2019-01-28T15:08:02.508Z,2.17
2019-01-28T15:12:56.936Z,2.60
2019-01-28T15:17:49.864Z,2.27
2019-01-28T15:22:43.401Z,2.30
2019-01-28T15:27:37.384Z,2.20
2019-01-28T15:32:30.386Z,2.60
2019-01-28T15:37:25.077Z,2.37
2019-01-28T15:42:18.453Z,3.03
2019-01-28T15:47:11.428Z,2.13
2019-01-28T15:52:05.867Z,2.67
2019-01-28T15:56:59.321Z,2.33
2019-01-28T16:01:55.346Z,3.17
2019-01-28T16:06:48.278Z,2.03
2019-01-28T16:11:41.271Z,2.23
2019-01-28T16:16:34.223Z,2.70
2019-01-28T16:21:27.178Z,2.20
2019-01-28T16:26:20.022Z,1.90
2019-01-28T16:31:12.963Z,2.30
2019-01-28T16:36:06.913Z,2.50
2019-01-28T16:40:59.865Z,2.00
2019-01-28T16:45:53.051Z,2.30
2019-01-28T16:50:45.942Z,2.40
2019-01-28T16:55:38.825Z,2.50
2019-01-28T17:00:35.238Z,2.30
2019-01-28T17:05:28.862Z,2.83
2019-01-28T17:10:21.921Z,2.50
2019-01-28T17:15:16.133Z,4.47
2019-01-28T17:20:13.671Z,2.67
2019-01-28T17:25:10.894Z,2.50
2019-01-28T17:30:09.298Z,2.27
2019-01-28T17:35:02.441Z,2.83
2019-01-28T17:39:55.280Z,2.47
2019-01-28T17:44:48.322Z,2.43
2019-01-28T17:49:41.485Z,2.60
2019-01-28T17:54:34.457Z,2.50
2019-01-28T17:59:27.539Z,2.33
2019-01-28T18:04:20.362Z,1.93
2019-01-28T18:09:13.287Z,1.97
2019-01-28T18:14:06.227Z,2.17
2019-01-28T18:18:59.341Z,1.90
2019-01-28T18:23:53.438Z,2.47
2019-01-28T18:28:46.644Z,2.73
2019-01-28T18:33:39.509Z,2.50
2019-01-28T18:38:32.547Z,2.23
2019-01-28T18:43:27.304Z,2.10
2019-01-28T18:48:20.263Z,2.50
2019-01-28T18:53:13.271Z,2.60
2019-01-28T18:58:06.647Z,2.53
2019-01-28T19:02:59.835Z,2.43
2019-01-28T19:07:56.994Z,2.33
2019-01-28T19:12:59.675Z,2.53
2019-01-28T19:18:15.088Z,2.30
2019-01-28T19:23:08.061Z,2.20
2019-01-28T19:28:01.023Z,1.77
2019-01-28T19:32:53.949Z,2.07
2019-01-28T19:37:47.233Z,2.47
2019-01-28T19:42:40.211Z,5.50
2019-01-28T19:47:33.537Z,2.77
2019-01-28T19:52:26.568Z,2.60
2019-01-28T19:57:19.518Z,2.27
2019-01-28T20:02:12.569Z,2.70
2019-01-28T20:07:05.755Z,3.60
2019-01-28T20:11:58.743Z,3.00
2019-01-28T20:16:51.798Z,2.60
2019-01-28T20:21:44.772Z,2.30
2019-01-28T20:26:37.842Z,2.67
2019-01-28T20:31:30.751Z,2.70
2019-01-28T20:36:23.808Z,2.87
2019-01-28T20:41:16.899Z,2.97
2019-01-28T20:46:09.846Z,3.37
2019-01-28T20:51:02.817Z,3.03
2019-01-28T20:55:55.702Z,2.67
2019-01-28T21:00:48.796Z,3.67
2019-01-28T21:05:41.682Z,3.00
2019-01-28T21:10:34.537Z,2.93
2019-01-28T21:15:27.635Z,2.97
2019-01-28T21:20:20.672Z,3.07
2019-01-28T21:25:17.436Z,2.47
2019-01-28T21:30:14.865Z,3.00
2019-01-28T21:35:09.240Z,2.87
2019-01-28T21:40:02.357Z,3.07
2019-01-28T21:44:55.208Z,3.53
2019-01-28T21:49:48.249Z,3.33
2019-01-28T21:54:41.373Z,3.20
2019-01-28T21:59:34.197Z,2.63
2019-01-28T22:04:27.168Z,3.23
2019-01-28T22:09:20.363Z,3.30
2019-01-28T22:14:13.196Z,3.40
2019-01-28T22:19:06.119Z,3.67
2019-01-28T22:23:59.063Z,3.90
2019-01-28T22:28:51.972Z,4.50
2019-01-28T22:33:45.085Z,4.10
2019-01-28T22:38:38.397Z,4.37
2019-01-28T22:43:31.294Z,4.27
2019-01-28T22:48:24.290Z,4.50
2019-01-28T22:53:17.213Z,4.17
2019-01-28T22:58:10.076Z,4.33
2019-01-28T23:03:04.006Z,5.70
2019-01-28T23:07:56.995Z,5.40
2019-01-28T23:12:49.856Z,6.17
2019-01-28T23:17:42.660Z,5.10
2019-01-28T23:22:35.572Z,5.70
2019-01-28T23:27:28.569Z,5.20
2019-01-28T23:32:21.443Z,5.23
2019-01-28T23:37:14.282Z,5.80
2019-01-28T23:42:07.345Z,6.10
2019-01-28T23:47:00.210Z,6.00
2019-01-28T23:51:53.111Z,6.10
2019-01-28T23:56:45.970Z,6.87
